Time;durP1;ratioP1;P1;durP2;ratioP2;P2;SDS_P1;SDS_P2;PMS_P1;PMS_P2;Temp;Humidity;BMP_temperature;BMP_pressure;BME280_temperature;BME280_humidity;BME280_pressure;Samples;Min_cycle;Max_cycle;Signal;HPM_P1;HPM_P2
2023/08/25 00:01:16;;;;;;;0.00;0.00;;;22.30;99.90;;;;;;5051267;28;20190;-61
2023/08/25 00:03:42;;;;;;;0.00;0.00;;;22.30;99.90;;;;;;5049795;28;20641;-61
2023/08/25 00:06:07;;;;;;;0.00;0.00;;;22.30;99.90;;;;;;5050994;28;20182;-61
2023/08/25 00:08:33;;;;;;;0.10;0.10;;;22.30;99.90;;;;;;5051274;28;20648;-61
2023/08/25 00:10:58;;;;;;;0.00;0.00;;;22.20;99.90;;;;;;5050783;28;20235;-61
2023/08/25 00:13:24;;;;;;;0.15;0.15;;;22.20;99.90;;;;;;5051288;28;20177;-61
2023/08/25 00:15:50;;;;;;;0.00;0.00;;;22.10;99.90;;;;;;5051186;28;20225;-61
2023/08/25 00:18:15;;;;;;;0.00;0.00;;;22.10;99.90;;;;;;5050880;28;20688;-61
2023/08/25 00:20:41;;;;;;;0.00;0.00;;;22.00;99.90;;;;;;5051203;28;20648;-61
2023/08/25 00:23:07;;;;;;;0.00;0.00;;;22.00;99.90;;;;;;5050818;28;20570;-61
2023/08/25 00:25:33;;;;;;;0.00;0.00;;;22.00;99.90;;;;;;5050927;28;20180;-61
2023/08/25 00:27:59;;;;;;;0.00;0.00;;;22.00;99.90;;;;;;5050755;28;20539;-62
2023/08/25 00:30:25;;;;;;;0.00;0.00;;;22.00;99.90;;;;;;5050604;28;20225;-61
2023/08/25 00:32:50;;;;;;;0.00;0.00;;;22.00;99.90;;;;;;5050884;28;20219;-61
2023/08/25 00:35:16;;;;;;;0.00;0.00;;;22.00;99.90;;;;;;5050766;28;20201;-61
2023/08/25 00:37:42;;;;;;;0.00;0.00;;;22.00;99.90;;;;;;5050557;28;20182;-61
2023/08/25 00:40:08;;;;;;;0.00;0.00;;;22.00;99.90;;;;;;5050329;28;20190;-61
2023/08/25 00:42:33;;;;;;;0.00;0.00;;;22.00;99.90;;;;;;5050582;28;20189;-60
2023/08/25 00:44:59;;;;;;;0.00;0.00;;;22.00;99.90;;;;;;5050399;28;20555;-60
2023/08/25 00:47:25;;;;;;;0.00;0.00;;;22.00;99.90;;;;;;5050740;28;20181;-61
2023/08/25 00:49:52;;;;;;;0.00;0.00;;;22.00;99.90;;;;;;5049352;28;20626;-61
2023/08/25 00:52:18;;;;;;;0.00;0.00;;;22.00;99.90;;;;;;5049107;28;20609;-61
2023/08/25 00:54:44;;;;;;;0.00;0.00;;;22.00;99.90;;;;;;5050354;28;20189;-61
2023/08/25 00:57:10;;;;;;;0.00;0.00;;;22.00;99.90;;;;;;5050365;28;20271;-61
2023/08/25 00:59:36;;;;;;;0.00;0.00;;;22.00;99.90;;;;;;5050437;28;20193;-61
2023/08/25 01:02:03;;;;;;;0.00;0.00;;;22.00;99.90;;;;;;5050729;28;20549;-61
2023/08/25 01:04:28;;;;;;;0.00;0.00;;;22.00;99.90;;;;;;5050349;28;20247;-61
2023/08/25 01:06:54;;;;;;;0.00;0.00;;;22.00;99.90;;;;;;5050681;28;20219;-61
2023/08/25 01:09:21;;;;;;;0.08;0.08;;;22.10;99.90;;;;;;5050770;28;20177;-61
2023/08/25 01:12:09;;;;;;;0.00;0.00;;;22.00;99.90;;;;;;5050078;28;20257;-60
2023/08/25 01:15:12;;;;;;;0.00;0.00;;;22.00;99.90;;;;;;5051392;28;20224;-61
2023/08/25 01:17:44;;;;;;;0.00;0.00;;;22.00;99.90;;;;;;5054582;28;20192;-61
2023/08/25 01:20:12;;;;;;;0.00;0.00;;;21.90;99.90;;;;;;5054517;28;20177;-61
2023/08/25 01:22:43;;;;;;;0.00;0.00;;;21.80;99.90;;;;;;5038463;28;20243;-62
2023/08/25 01:25:17;;;;;;;0.00;0.00;;;21.80;99.90;;;;;;5054294;28;20177;-61
2023/08/25 01:27:43;;;;;;;0.00;0.00;;;21.80;99.90;;;;;;5054187;28;20193;-61
2023/08/25 01:30:09;;;;;;;0.00;0.00;;;21.80;99.90;;;;;;5053769;28;20308;-61
2023/08/25 01:32:37;;;;;;;0.00;0.00;;;21.80;99.90;;;;;;5054333;28;20212;-61
2023/08/25 01:35:04;;;;;;;0.00;0.00;;;21.70;99.90;;;;;;5053884;28;20531;-61
2023/08/25 01:37:35;;;;;;;0.00;0.00;;;21.70;99.90;;;;;;5054156;28;20193;-61
2023/08/25 01:40:10;;;;;;;0.00;0.00;;;21.60;99.90;;;;;;5053856;28;20173;-61
2023/08/25 01:42:39;;;;;;;0.00;0.00;;;21.50;99.90;;;;;;5054045;28;20196;-61
2023/08/25 01:45:06;;;;;;;0.00;0.00;;;21.40;99.90;;;;;;5053905;28;20215;-61
2023/08/25 01:47:33;;;;;;;0.00;0.00;;;21.30;99.90;;;;;;5054029;28;20178;-61
2023/08/25 01:49:59;;;;;;;0.00;0.00;;;21.20;99.90;;;;;;5053974;28;20177;-61
2023/08/25 01:52:26;;;;;;;0.00;0.00;;;21.20;99.90;;;;;;5053864;28;20181;-60
2023/08/25 01:54:52;;;;;;;0.00;0.00;;;21.10;99.90;;;;;;5053822;28;20177;-61
2023/08/25 01:57:17;;;;;;;0.00;0.00;;;21.10;99.90;;;;;;5053902;28;20213;-61
2023/08/25 01:59:43;;;;;;;0.00;0.00;;;21.10;99.90;;;;;;5053659;28;20207;-61
2023/08/25 02:02:09;;;;;;;0.10;0.10;;;21.00;99.90;;;;;;5053547;28;20185;-61
2023/08/25 02:04:35;;;;;;;0.00;0.00;;;20.90;99.90;;;;;;5053390;28;20537;-61
2023/08/25 02:07:00;;;;;;;0.00;0.00;;;20.90;99.90;;;;;;5053379;28;20507;-60
2023/08/25 02:09:26;;;;;;;0.00;0.00;;;20.80;99.90;;;;;;5052303;28;20538;-61
2023/08/25 02:11:51;;;;;;;0.00;0.00;;;20.80;99.90;;;;;;5053383;28;20181;-60
2023/08/25 02:14:17;;;;;;;0.00;0.00;;;20.70;99.90;;;;;;5053183;28;20194;-60
2023/08/25 02:16:42;;;;;;;0.00;0.00;;;20.70;99.90;;;;;;5053275;28;20225;-60
2023/08/25 02:19:08;;;;;;;0.00;0.00;;;20.60;99.90;;;;;;5053333;28;20224;-61
2023/08/25 02:21:34;;;;;;;0.35;0.35;;;20.60;99.90;;;;;;5053395;28;20687;-61
2023/08/25 02:23:59;;;;;;;0.00;0.00;;;20.60;99.90;;;;;;5053302;28;20185;-60
2023/08/25 02:26:25;;;;;;;0.00;0.00;;;20.60;99.90;;;;;;5052206;28;20248;-60
2023/08/25 02:28:50;;;;;;;0.00;0.00;;;20.60;99.90;;;;;;5052947;28;20219;-60
2023/08/25 02:31:16;;;;;;;0.00;0.00;;;20.60;99.90;;;;;;5053026;28;20220;-60
2023/08/25 02:33:41;;;;;;;0.00;0.00;;;20.60;99.90;;;;;;5052944;28;20182;-60
2023/08/25 02:36:07;;;;;;;0.00;0.00;;;20.60;99.90;;;;;;5052854;28;20248;-60
2023/08/25 02:38:32;;;;;;;0.00;0.00;;;20.50;99.90;;;;;;5052921;28;20261;-60
2023/08/25 02:40:58;;;;;;;0.40;0.40;;;20.50;99.90;;;;;;5052759;28;20205;-60
2023/08/25 02:43:23;;;;;;;0.00;0.00;;;20.50;99.90;;;;;;5052831;28;20186;-60
2023/08/25 02:45:49;;;;;;;0.00;0.00;;;20.50;99.90;;;;;;5052547;28;20252;-60
2023/08/25 02:48:14;;;;;;;0.00;0.00;;;20.50;99.90;;;;;;5052954;28;20185;-60
2023/08/25 02:50:40;;;;;;;0.00;0.00;;;20.40;99.90;;;;;;5052445;28;20174;-60
2023/08/25 02:53:05;;;;;;;0.00;0.00;;;20.40;99.90;;;;;;5051536;28;20641;-60
2023/08/25 02:55:31;;;;;;;0.00;0.00;;;20.40;99.90;;;;;;5052629;28;20304;-61
2023/08/25 02:57:56;;;;;;;0.00;0.00;;;20.40;99.90;;;;;;5052702;28;20587;-60
2023/08/25 03:00:25;;;;;;;0.00;0.00;;;20.40;99.90;;;;;;5052687;28;20189;-60
2023/08/25 03:02:52;;;;;;;0.00;0.00;;;20.40;99.90;;;;;;5052372;28;20264;-60
2023/08/25 03:05:18;;;;;;;0.00;0.00;;;20.40;99.90;;;;;;5052384;28;20185;-61
2023/08/25 03:07:43;;;;;;;0.00;0.00;;;20.40;99.90;;;;;;5052562;28;20185;-60
2023/08/25 03:10:09;;;;;;;0.00;0.00;;;20.30;99.90;;;;;;5052310;28;20272;-60
2023/08/25 03:12:35;;;;;;;0.00;0.00;;;20.30;99.90;;;;;;5052245;28;20181;-61
2023/08/25 03:15:01;;;;;;;0.00;0.00;;;20.30;99.90;;;;;;5052360;28;20649;-60
2023/08/25 03:17:26;;;;;;;0.00;0.00;;;20.30;99.90;;;;;;5051767;28;20221;-60
2023/08/25 03:19:52;;;;;;;0.00;0.00;;;20.30;99.90;;;;;;5052281;28;20269;-60
2023/08/25 03:22:18;;;;;;;0.00;0.00;;;20.30;99.90;;;;;;5051939;28;20193;-61
2023/08/25 03:24:43;;;;;;;0.00;0.00;;;20.30;99.90;;;;;;5051904;28;20637;-60
2023/08/25 03:27:09;;;;;;;0.00;0.00;;;20.40;99.90;;;;;;5051979;28;20173;-60
2023/08/25 03:29:35;;;;;;;0.00;0.00;;;20.40;99.90;;;;;;5051914;28;20228;-60
2023/08/25 03:32:00;;;;;;;0.00;0.00;;;20.40;99.90;;;;;;5051854;28;20185;-60
2023/08/25 03:34:26;;;;;;;0.00;0.00;;;20.40;99.90;;;;;;5051610;28;20188;-60
2023/08/25 03:36:52;;;;;;;0.00;0.00;;;20.40;99.90;;;;;;5051537;28;20214;-60
2023/08/25 03:39:18;;;;;;;0.00;0.00;;;20.40;99.90;;;;;;5051721;28;20786;-60
2023/08/25 03:41:43;;;;;;;0.22;0.22;;;20.30;99.90;;;;;;5051544;28;20636;-60
2023/08/25 03:44:09;;;;;;;0.00;0.00;;;20.30;99.90;;;;;;5051452;28;20192;-60
2023/08/25 03:46:34;;;;;;;0.00;0.00;;;20.20;99.90;;;;;;5051527;28;20173;-60
2023/08/25 03:49:00;;;;;;;0.00;0.00;;;20.20;99.90;;;;;;5051617;28;20166;-60
2023/08/25 03:51:25;;;;;;;0.00;0.00;;;20.20;99.90;;;;;;5051368;28;20202;-60
2023/08/25 03:53:51;;;;;;;0.00;0.00;;;20.10;99.90;;;;;;5051506;28;20181;-60
2023/08/25 03:56:16;;;;;;;0.00;0.00;;;20.10;99.90;;;;;;5051267;28;20304;-60
2023/08/25 03:58:42;;;;;;;0.00;0.00;;;20.10;99.90;;;;;;5051447;28;20212;-60
2023/08/25 04:01:08;;;;;;;0.00;0.00;;;20.10;99.90;;;;;;5051151;28;20811;-60
2023/08/25 04:03:34;;;;;;;0.80;0.80;;;20.00;99.90;;;;;;5047581;28;20186;-60
2023/08/25 04:06:00;;;;;;;0.00;0.00;;;20.00;99.90;;;;;;5043873;28;20252;-60
2023/08/25 04:08:25;;;;;;;0.00;0.00;;;20.00;99.90;;;;;;5051285;28;20181;-60
2023/08/25 04:10:51;;;;;;;0.03;0.03;;;20.00;99.90;;;;;;5051158;28;20177;-60
2023/08/25 04:13:17;;;;;;;0.00;0.00;;;19.90;99.90;;;;;;5051221;28;20243;-60
2023/08/25 04:15:43;;;;;;;0.00;0.00;;;19.90;99.90;;;;;;5050913;28;20209;-60
2023/08/25 04:18:08;;;;;;;0.00;0.00;;;19.90;99.90;;;;;;5051158;28;20189;-60
2023/08/25 04:20:34;;;;;;;0.00;0.00;;;19.80;99.90;;;;;;5051038;28;20174;-60
2023/08/25 04:23:03;;;;;;;0.00;0.00;;;19.80;99.90;;;;;;5051065;28;20178;-60
2023/08/25 04:25:32;;;;;;;0.00;0.00;;;19.80;99.90;;;;;;5050905;28;20189;-60
2023/08/25 04:27:58;;;;;;;0.00;0.00;;;19.80;99.90;;;;;;5050968;28;20548;-60
2023/08/25 04:30:23;;;;;;;0.00;0.00;;;19.80;99.90;;;;;;5050353;28;20324;-60
2023/08/25 04:32:50;;;;;;;0.00;0.00;;;19.80;99.90;;;;;;5050596;28;20181;-60
2023/08/25 04:35:16;;;;;;;0.00;0.00;;;19.80;99.90;;;;;;5050701;28;20185;-60
2023/08/25 04:37:47;;;;;;;0.00;0.00;;;19.80;99.90;;;;;;5050655;28;20384;-60
2023/08/25 04:40:13;;;;;;;0.00;0.00;;;19.70;99.90;;;;;;5050466;28;20260;-60
2023/08/25 04:42:38;;;;;;;0.00;0.00;;;19.70;99.90;;;;;;5050327;28;20637;-60
2023/08/25 04:45:04;;;;;;;0.00;0.00;;;19.70;99.90;;;;;;5050443;28;20237;-60
2023/08/25 04:47:30;;;;;;;0.00;0.00;;;19.80;99.90;;;;;;5050324;28;20256;-60
2023/08/25 04:49:57;;;;;;;0.08;0.08;;;19.80;99.90;;;;;;5050099;28;20620;-60
2023/08/25 04:52:23;;;;;;;0.00;0.00;;;19.80;99.90;;;;;;5050625;28;20177;-60
2023/08/25 04:54:49;;;;;;;0.30;0.30;;;19.80;99.90;;;;;;5050211;28;20220;-60
2023/08/25 04:57:15;;;;;;;0.17;0.17;;;19.80;99.90;;;;;;5050430;28;20215;-60
2023/08/25 04:59:40;;;;;;;0.00;0.00;;;19.80;99.90;;;;;;5050550;28;20272;-60
2023/08/25 05:02:06;;;;;;;0.00;0.00;;;19.80;99.90;;;;;;5050441;28;20273;-60
2023/08/25 05:04:32;;;;;;;0.00;0.00;;;19.80;99.90;;;;;;5038668;28;20213;-60
2023/08/25 05:06:57;;;;;;;0.00;0.00;;;19.90;99.90;;;;;;5049924;28;20190;-60
2023/08/25 05:09:23;;;;;;;0.00;0.00;;;20.00;99.90;;;;;;5050507;28;20181;-60
2023/08/25 05:11:48;;;;;;;0.10;0.10;;;20.10;99.90;;;;;;5050108;28;20189;-60
2023/08/25 05:14:14;;;;;;;0.00;0.00;;;20.20;99.90;;;;;;5050480;28;20185;-60
2023/08/25 05:16:39;;;;;;;0.00;0.00;;;20.40;99.90;;;;;;5049726;28;20213;-60
2023/08/25 05:19:05;;;;;;;0.00;0.00;;;20.60;99.90;;;;;;5048916;28;20680;-60
2023/08/25 05:21:31;;;;;;;0.00;0.00;;;20.80;99.90;;;;;;5050328;28;20541;-60
2023/08/25 05:24:19;;;;;;;0.00;0.00;;;21.00;99.90;;;;;;5050082;28;20186;-60
2023/08/25 05:26:51;;;;;;;0.00;0.00;;;21.30;99.90;;;;;;5047567;28;20273;-60
2023/08/25 05:29:20;;;;;;;0.00;0.00;;;21.60;99.90;;;;;;5050126;28;20174;-60
2023/08/25 05:31:46;;;;;;;0.00;0.00;;;21.90;99.90;;;;;;5050201;28;20660;-60
2023/08/25 05:34:11;;;;;;;0.00;0.00;;;22.20;99.90;;;;;;5050224;28;20189;-60
2023/08/25 05:36:37;;;;;;;0.00;0.00;;;22.50;99.90;;;;;;5049963;28;20228;-60
2023/08/25 05:39:03;;;;;;;0.00;0.00;;;22.70;99.90;;;;;;5047921;28;20177;-60
2023/08/25 05:41:28;;;;;;;0.00;0.00;;;23.00;99.90;;;;;;5049588;28;20196;-60
2023/08/25 05:43:54;;;;;;;0.00;0.00;;;23.20;99.90;;;;;;5050124;28;20263;-60
2023/08/25 05:46:20;;;;;;;0.00;0.00;;;23.30;99.90;;;;;;5050113;28;20204;-61
2023/08/25 05:48:45;;;;;;;0.00;0.00;;;23.40;99.90;;;;;;5050410;28;20244;-61
2023/08/25 05:51:11;;;;;;;0.00;0.00;;;23.30;99.90;;;;;;5049796;28;20182;-62
2023/08/25 05:53:36;;;;;;;0.08;0.08;;;23.20;99.90;;;;;;5050006;28;20189;-62
2023/08/25 05:56:02;;;;;;;0.00;0.00;;;23.00;99.90;;;;;;5049788;28;20218;-61
2023/08/25 05:58:28;;;;;;;0.00;0.00;;;22.90;99.90;;;;;;5050268;28;20264;-62
2023/08/25 06:00:56;;;;;;;0.00;0.00;;;22.80;99.90;;;;;;5048716;28;20235;-64
2023/08/25 06:03:22;;;;;;;0.00;0.00;;;22.70;99.90;;;;;;5053511;28;20181;-63
2023/08/25 06:05:51;;;;;;;0.00;0.00;;;22.80;99.90;;;;;;5053680;28;20199;-63
2023/08/25 06:08:17;;;;;;;0.00;0.00;;;22.70;99.90;;;;;;5053538;28;20636;-64
2023/08/25 06:10:42;;;;;;;0.00;0.00;;;22.70;99.90;;;;;;5052781;28;20216;-65
2023/08/25 06:13:08;;;;;;;0.00;0.00;;;22.70;99.90;;;;;;5053134;28;20587;-62
2023/08/25 06:15:33;;;;;;;0.00;0.00;;;22.50;99.90;;;;;;5053095;28;20216;-63
2023/08/25 06:17:59;;;;;;;0.00;0.00;;;22.30;99.90;;;;;;5053228;28;20578;-64
2023/08/25 06:20:24;;;;;;;0.00;0.00;;;22.00;99.90;;;;;;5053292;28;20213;-62
2023/08/25 06:22:50;;;;;;;0.00;0.00;;;21.90;99.90;;;;;;5052701;28;20189;-64
2023/08/25 06:25:16;;;;;;;0.00;0.00;;;21.70;99.90;;;;;;5052750;28;20177;-62
2023/08/25 06:27:41;;;;;;;0.00;0.00;;;21.50;99.90;;;;;;5053138;28;20182;-63
2023/08/25 06:30:08;;;;;;;0.00;0.00;;;21.40;99.90;;;;;;5052768;28;20225;-63
2023/08/25 06:32:33;;;;;;;0.00;0.00;;;21.40;99.90;;;;;;5052021;28;20637;-62
2023/08/25 06:34:59;;;;;;;0.00;0.00;;;21.30;99.90;;;;;;5052638;28;20206;-61
2023/08/25 06:37:25;;;;;;;0.00;0.00;;;21.30;99.90;;;;;;5052689;28;20297;-62
2023/08/25 06:39:50;;;;;;;0.00;0.00;;;21.30;99.90;;;;;;5052913;28;20182;-61
2023/08/25 06:42:16;;;;;;;0.00;0.00;;;21.30;99.90;;;;;;5052942;28;20185;-62
2023/08/25 06:44:42;;;;;;;0.00;0.00;;;21.30;99.90;;;;;;5052776;28;20173;-65
2023/08/25 06:47:08;;;;;;;0.00;0.00;;;21.30;99.90;;;;;;5052018;28;20186;-62
2023/08/25 06:49:33;;;;;;;0.00;0.00;;;21.30;99.90;;;;;;5060964;28;20194;-64
2023/08/25 06:51:59;;;;;;;0.00;0.00;;;21.10;99.90;;;;;;5052405;28;20182;-64
2023/08/25 06:54:25;;;;;;;0.00;0.00;;;21.00;99.90;;;;;;5052099;28;20188;-63
2023/08/25 06:56:51;;;;;;;0.00;0.00;;;20.90;99.90;;;;;;5051795;28;20351;-63
2023/08/25 06:59:16;;;;;;;0.00;0.00;;;20.80;99.90;;;;;;5052026;28;20649;-65
2023/08/25 07:01:43;;;;;;;0.00;0.00;;;20.80;99.90;;;;;;5051810;28;20199;-66
2023/08/25 07:04:09;;;;;;;0.00;0.00;;;20.80;99.90;;;;;;5051869;28;20546;-65
2023/08/25 07:06:36;;;;;;;0.00;0.00;;;20.80;99.90;;;;;;5051645;28;20243;-66
2023/08/25 07:09:02;;;;;;;0.00;0.00;;;21.00;99.90;;;;;;5047806;28;20186;-65
2023/08/25 07:11:28;;;;;;;0.00;0.00;;;21.10;99.90;;;;;;5052094;28;20188;-65
2023/08/25 07:13:53;;;;;;;0.00;0.00;;;21.20;99.90;;;;;;5051873;28;20165;-65
2023/08/25 07:16:19;;;;;;;0.00;0.00;;;21.20;99.90;;;;;;5052068;28;20620;-65
2023/08/25 07:18:45;;;;;;;0.00;0.00;;;21.30;99.90;;;;;;5052071;28;20174;-65
2023/08/25 07:21:11;;;;;;;0.22;0.22;;;21.40;99.90;;;;;;5049653;28;20169;-66
2023/08/25 07:23:37;;;;;;;0.00;0.00;;;21.50;99.90;;;;;;5033920;28;20181;-65
2023/08/25 07:26:03;;;;;;;0.00;0.00;;;21.60;99.90;;;;;;5043675;28;20552;-65
2023/08/25 07:28:29;;;;;;;0.00;0.00;;;21.60;99.90;;;;;;5052064;28;20239;-63
2023/08/25 07:30:54;;;;;;;0.00;0.00;;;21.70;99.90;;;;;;5050907;28;20702;-65
2023/08/25 07:33:20;;;;;;;0.93;0.50;;;21.50;99.90;;;;;;5051298;28;20189;-65
2023/08/25 07:35:46;;;;;;;0.00;0.00;;;21.50;99.90;;;;;;5051014;28;20223;-65
2023/08/25 07:38:12;;;;;;;0.00;0.00;;;21.40;99.90;;;;;;5051105;28;20201;-66
2023/08/25 07:40:38;;;;;;;0.00;0.00;;;21.30;99.90;;;;;;5051208;28;20640;-67
2023/08/25 07:43:03;;;;;;;0.00;0.00;;;21.00;99.90;;;;;;5051262;28;20173;-69
2023/08/25 07:45:30;;;;;;;0.00;0.00;;;20.70;99.90;;;;;;5051960;28;21231;-64
2023/08/25 07:47:58;;;;;;;0.00;0.00;;;20.50;99.90;;;;;;5051649;28;20526;-63
2023/08/25 07:50:24;;;;;;;0.10;0.10;;;20.40;99.90;;;;;;5051638;28;20185;-64
2023/08/25 07:52:50;;;;;;;0.00;0.00;;;20.30;99.90;;;;;;5051754;28;20552;-64
2023/08/25 07:55:16;;;;;;;0.03;0.03;;;20.30;99.90;;;;;;5051717;28;20177;-64
2023/08/25 07:57:42;;;;;;;0.00;0.00;;;20.30;99.90;;;;;;5050253;28;20213;-64
2023/08/25 08:00:12;;;;;;;0.00;0.00;;;20.30;99.90;;;;;;5050269;28;20578;-65
2023/08/25 08:02:38;;;;;;;0.00;0.00;;;20.30;99.90;;;;;;5051444;28;20264;-65
2023/08/25 08:05:04;;;;;;;0.00;0.00;;;20.30;99.90;;;;;;5051198;28;20261;-65
2023/08/25 08:07:29;;;;;;;0.00;0.00;;;20.30;99.90;;;;;;5050245;28;20182;-64
2023/08/25 08:09:55;;;;;;;0.00;0.00;;;20.30;99.90;;;;;;5051387;28;20173;-64
2023/08/25 08:12:20;;;;;;;0.00;0.00;;;20.30;99.90;;;;;;5051301;28;20242;-62
2023/08/25 08:14:46;;;;;;;0.00;0.00;;;20.30;99.90;;;;;;5051272;28;20540;-63
2023/08/25 08:17:11;;;;;;;0.00;0.00;;;20.30;99.90;;;;;;5051154;28;20708;-63
2023/08/25 08:19:37;;;;;;;0.00;0.00;;;20.30;99.90;;;;;;5051243;28;20187;-63
2023/08/25 08:22:03;;;;;;;0.00;0.00;;;20.30;99.90;;;;;;5049521;28;20181;-63
2023/08/25 08:24:29;;;;;;;0.00;0.00;;;20.40;99.90;;;;;;5050702;28;20173;-63
2023/08/25 08:26:54;;;;;;;0.00;0.00;;;20.40;99.90;;;;;;5051113;28;20557;-63
2023/08/25 08:29:20;;;;;;;0.00;0.00;;;20.40;99.90;;;;;;5050812;28;20169;-63
2023/08/25 08:31:46;;;;;;;0.75;0.75;;;20.50;99.90;;;;;;5050923;28;20189;-63
2023/08/25 08:34:11;;;;;;;0.00;0.00;;;20.50;99.90;;;;;;5050828;28;20197;-63
2023/08/25 08:36:37;;;;;;;0.00;0.00;;;20.60;99.90;;;;;;5050451;28;20216;-63
2023/08/25 08:39:04;;;;;;;0.00;0.00;;;20.60;99.90;;;;;;5051168;28;20178;-63
2023/08/25 08:41:30;;;;;;;0.00;0.00;;;20.80;99.90;;;;;;5051189;28;20264;-63
2023/08/25 08:44:00;;;;;;;0.00;0.00;;;20.80;99.90;;;;;;5051257;28;20170;-63
2023/08/25 08:46:27;;;;;;;0.00;0.00;;;20.80;99.90;;;;;;5050752;28;20169;-63
2023/08/25 08:48:54;;;;;;;0.00;0.00;;;20.80;99.90;;;;;;5050460;28;20173;-64
2023/08/25 08:51:20;;;;;;;0.00;0.00;;;20.80;99.90;;;;;;5050281;28;20282;-65
2023/08/25 08:53:47;;;;;;;0.00;0.00;;;20.70;99.90;;;;;;5050023;28;20296;-64
2023/08/25 08:56:15;;;;;;;0.00;0.00;;;20.70;99.90;;;;;;5050867;28;20220;-64
2023/08/25 08:58:42;;;;;;;0.00;0.00;;;20.80;99.90;;;;;;5050444;28;20212;-64
2023/08/25 09:01:09;;;;;;;0.10;0.10;;;20.80;99.90;;;;;;5042464;28;20280;-64
2023/08/25 09:03:38;;;;;;;0.00;0.00;;;20.90;99.90;;;;;;5049908;28;20674;-62
2023/08/25 09:06:03;;;;;;;0.00;0.00;;;21.00;99.90;;;;;;5049788;28;20184;-62
2023/08/25 09:08:31;;;;;;;0.00;0.00;;;21.20;99.90;;;;;;5048538;28;20264;-63
2023/08/25 09:11:00;;;;;;;0.00;0.00;;;21.30;99.90;;;;;;5048793;28;20178;-64
2023/08/25 09:13:25;;;;;;;0.00;0.00;;;21.40;99.90;;;;;;5049533;28;20228;-62
2023/08/25 09:15:53;;;;;;;0.00;0.00;;;21.50;99.90;;;;;;5050408;28;20212;-63
2023/08/25 09:18:18;;;;;;;0.00;0.00;;;21.60;99.90;;;;;;5050586;28;20196;-63
2023/08/25 09:20:44;;;;;;;0.00;0.00;;;21.70;99.90;;;;;;5050061;28;20165;-62
2023/08/25 09:23:10;;;;;;;0.00;0.00;;;21.80;99.90;;;;;;5054242;28;20537;-62
2023/08/25 09:25:40;;;;;;;0.00;0.00;;;21.90;99.90;;;;;;5062051;28;20622;-62
2023/08/25 09:28:05;;;;;;;0.00;0.00;;;22.00;99.90;;;;;;5050302;28;20258;-64
2023/08/25 09:30:39;;;;;;;0.00;0.00;;;22.10;99.90;;;;;;5050519;28;20696;-64
2023/08/25 09:33:09;;;;;;;0.00;0.00;;;22.30;99.90;;;;;;5050383;28;20181;-64
2023/08/25 09:35:35;;;;;;;0.00;0.00;;;22.40;99.90;;;;;;5033175;28;20178;-64
2023/08/25 09:38:02;;;;;;;0.00;0.00;;;22.50;99.90;;;;;;5068837;28;20185;-64
2023/08/25 09:40:28;;;;;;;0.00;0.00;;;22.50;99.90;;;;;;5074450;28;20535;-63
2023/08/25 09:42:59;;;;;;;0.00;0.00;;;22.50;99.90;;;;;;5074274;28;20184;-63
2023/08/25 09:45:29;;;;;;;0.00;0.00;;;22.40;99.90;;;;;;5063434;28;20184;-63
2023/08/25 09:48:16;;;;;;;0.00;0.00;;;22.30;99.90;;;;;;5054001;28;20210;-64
2023/08/25 09:50:43;;;;;;;0.00;0.00;;;22.30;99.90;;;;;;5033185;28;20186;-65
2023/08/25 09:53:13;;;;;;;0.00;0.00;;;22.20;99.90;;;;;;5034261;28;20182;-65
2023/08/25 09:55:39;;;;;;;0.00;0.00;;;22.20;99.90;;;;;;5034143;28;20645;-64
2023/08/25 09:58:06;;;;;;;0.00;0.00;;;22.30;99.90;;;;;;5033943;28;20204;-64
2023/08/25 10:00:36;;;;;;;0.00;0.00;;;22.40;99.90;;;;;;5047570;28;20274;-64
2023/08/25 10:03:08;;;;;;;0.38;0.38;;;22.60;99.90;;;;;;5052806;28;20209;-65
2023/08/25 10:05:35;;;;;;;0.00;0.00;;;22.50;99.90;;;;;;5053883;28;20657;-66
2023/08/25 10:08:00;;;;;;;0.00;0.00;;;22.50;99.90;;;;;;5050912;28;20221;-64
2023/08/25 10:10:31;;;;;;;0.10;0.10;;;22.60;99.90;;;;;;5053689;28;20201;-64
2023/08/25 10:12:57;;;;;;;0.00;0.00;;;22.70;99.90;;;;;;5053792;28;20169;-64
2023/08/25 10:15:30;;;;;;;0.00;0.00;;;22.80;99.90;;;;;;5053602;28;20181;-64
2023/08/25 10:18:01;;;;;;;0.00;0.00;;;22.90;99.90;;;;;;5053620;28;20652;-65
2023/08/25 10:20:30;;;;;;;0.00;0.00;;;22.90;99.90;;;;;;5053738;28;20217;-65
2023/08/25 10:22:57;;;;;;;0.00;0.00;;;22.90;99.90;;;;;;5053541;28;20182;-65
2023/08/25 10:25:29;;;;;;;0.00;0.00;;;22.90;99.90;;;;;;5053564;28;20795;-65
2023/08/25 10:27:56;;;;;;;0.00;0.00;;;22.90;99.90;;;;;;5053535;28;20213;-65
2023/08/25 10:30:22;;;;;;;0.00;0.00;;;22.80;99.90;;;;;;5053566;28;20237;-65
2023/08/25 10:33:10;;;;;;;0.00;0.00;;;22.80;99.90;;;;;;5053384;28;20231;-65
2023/08/25 10:35:44;;;;;;;0.00;0.00;;;22.80;99.90;;;;;;5052648;28;20209;-65
2023/08/25 10:38:30;;;;;;;0.00;0.00;;;22.90;99.90;;;;;;5041040;28;20186;-65
2023/08/25 10:41:14;;;;;;;0.00;0.00;;;23.10;99.90;;;;;;5048940;28;20177;-65
2023/08/25 10:43:44;;;;;;;0.00;0.00;;;23.30;99.90;;;;;;5052660;28;20268;-66
2023/08/25 10:46:10;;;;;;;0.00;0.00;;;23.50;99.90;;;;;;5052663;28;20186;-65
2023/08/25 10:48:42;;;;;;;0.00;0.00;;;23.40;99.90;;;;;;5051728;28;20590;-65
2023/08/25 10:51:15;;;;;;;0.00;0.00;;;23.50;99.90;;;;;;5052697;28;20237;-66
2023/08/25 10:53:52;;;;;;;0.00;0.00;;;23.60;99.90;;;;;;5052122;28;20262;-66
2023/08/25 10:56:21;;;;;;;0.00;0.00;;;23.80;99.90;;;;;;5052234;28;20672;-65
2023/08/25 10:59:03;;;;;;;0.05;0.05;;;24.00;99.90;;;;;;5051252;28;20187;-66
2023/08/25 11:01:37;;;;;;;0.00;0.00;;;24.20;99.90;;;;;;5046239;28;20186;-66
2023/08/25 11:04:07;;;;;;;0.00;0.00;;;24.30;99.90;;;;;;5051826;28;20568;-66
2023/08/25 11:06:44;;;;;;;0.10;0.10;;;24.60;99.90;;;;;;5052099;28;20181;-66
2023/08/25 11:09:18;;;;;;;0.00;0.00;;;24.70;99.90;;;;;;5051428;28;20170;-66
2023/08/25 11:11:45;;;;;;;0.00;0.00;;;24.90;99.90;;;;;;5052557;28;20229;-66
2023/08/25 11:14:14;;;;;;;0.63;0.63;;;25.20;99.90;;;;;;5052456;28;20181;-66
2023/08/25 11:16:40;;;;;;;0.55;0.55;;;25.50;99.90;;;;;;5052216;28;20217;-66
2023/08/25 11:19:27;;;;;;;0.00;0.00;;;25.80;99.90;;;;;;5052389;28;20178;-66
2023/08/25 11:22:00;;;;;;;0.00;0.00;;;26.20;99.90;;;;;;5052409;28;20719;-66
2023/08/25 11:24:27;;;;;;;0.00;0.00;;;26.30;99.90;;;;;;5052414;28;20645;-66
2023/08/25 11:26:53;;;;;;;0.00;0.00;;;26.50;99.90;;;;;;5051692;28;20212;-65
2023/08/25 11:29:18;;;;;;;0.00;0.00;;;26.50;99.90;;;;;;5051106;28;20213;-66
2023/08/25 11:31:44;;;;;;;0.00;0.00;;;26.40;99.90;;;;;;5051848;28;20177;-66
2023/08/25 11:34:10;;;;;;;0.00;0.00;;;26.40;99.90;;;;;;5050623;28;22046;-66
2023/08/25 11:36:36;;;;;;;0.00;0.00;;;26.30;99.90;;;;;;5051053;28;20323;-66
2023/08/25 11:39:02;;;;;;;0.00;0.00;;;26.20;99.90;;;;;;5050982;28;20181;-66
2023/08/25 11:41:28;;;;;;;0.00;0.00;;;26.10;99.90;;;;;;5051493;28;20590;-65
2023/08/25 11:43:55;;;;;;;0.00;0.00;;;26.00;99.90;;;;;;5050247;28;20181;-66
2023/08/25 11:46:20;;;;;;;0.00;0.00;;;25.90;99.90;;;;;;5051243;28;20189;-66
2023/08/25 11:48:50;;;;;;;0.00;0.00;;;26.00;99.90;;;;;;5051517;28;20178;-66
2023/08/25 11:51:18;;;;;;;0.00;0.00;;;26.20;99.90;;;;;;5050215;28;20654;-66
2023/08/25 11:53:47;;;;;;;0.00;0.00;;;26.30;99.90;;;;;;5050463;28;20184;-66
2023/08/25 11:56:16;;;;;;;0.00;0.00;;;26.50;99.90;;;;;;5051440;28;20286;-66
2023/08/25 11:58:42;;;;;;;0.00;0.00;;;26.50;99.90;;;;;;5050800;28;20177;-66
2023/08/25 12:01:12;;;;;;;0.00;0.00;;;26.50;99.90;;;;;;5049974;28;20174;-66
2023/08/25 12:03:39;;;;;;;0.00;0.00;;;26.50;99.90;;;;;;5050896;28;20185;-66
2023/08/25 12:06:06;;;;;;;0.00;0.00;;;26.50;99.90;;;;;;5051501;28;20177;-65
2023/08/25 12:08:36;;;;;;;0.00;0.00;;;26.60;99.90;;;;;;5051550;28;20254;-66
2023/08/25 12:11:02;;;;;;;0.00;0.00;;;26.60;99.90;;;;;;5051519;28;20188;-65
2023/08/25 12:13:32;;;;;;;0.00;0.00;;;26.60;99.90;;;;;;5051245;28;20173;-64
2023/08/25 12:15:58;;;;;;;0.00;0.00;;;26.60;99.90;;;;;;5050831;28;20209;-64
2023/08/25 12:18:34;;;;;;;0.22;0.10;;;26.60;99.90;;;;;;5050991;28;20188;-65
2023/08/25 12:21:05;;;;;;;0.00;0.00;;;26.50;99.90;;;;;;5050888;28;20190;-65
2023/08/25 12:23:35;;;;;;;0.60;0.60;;;26.40;99.90;;;;;;5051255;28;20681;-65
2023/08/25 12:26:03;;;;;;;0.00;0.00;;;26.40;99.90;;;;;;5050963;28;20270;-65
2023/08/25 12:28:29;;;;;;;0.05;0.05;;;26.40;99.90;;;;;;5050648;28;20185;-65
2023/08/25 12:30:54;;;;;;;0.00;0.00;;;26.40;99.90;;;;;;5050306;28;20212;-64
2023/08/25 12:33:20;;;;;;;0.00;0.00;;;26.40;99.90;;;;;;5051019;28;20192;-65
2023/08/25 12:35:45;;;;;;;0.00;0.00;;;26.30;99.90;;;;;;5050881;28;20165;-65
2023/08/25 12:38:11;;;;;;;0.00;0.00;;;26.30;99.90;;;;;;5050717;28;20204;-65
2023/08/25 12:40:37;;;;;;;0.00;0.00;;;26.30;99.90;;;;;;5050703;28;20166;-64
2023/08/25 12:43:04;;;;;;;0.00;0.00;;;26.30;99.90;;;;;;5050401;28;20181;-64
2023/08/25 12:45:29;;;;;;;0.00;0.00;;;26.30;99.90;;;;;;5050696;28;20584;-64
2023/08/25 12:47:55;;;;;;;0.00;0.00;;;26.30;99.90;;;;;;5050833;28;20260;-64